LFOT

Tours-Val-de-Loire Airport

Tours/Val de Loire (Loire Valley), France
TAF AMD LFOT 221225Z 2212/2312 20005KT 6000 BKN003 BECMG 2212/2214 9999 BKN012 TEMPO 2219/2308 3000 -SHRA BKN009 SCT020TCU BECMG 2308/2310 30010KT SCT014
Issued Valid From Valid To
Jan-22 @ 12:25 UTC
(4 hours ago)
Jan-22 @ 12:00 UTC
(5 hours ago)
Jan-23 @ 12:00 UTC
(in 19 hours)
Jan-22 @ 12:00 to Jan-23 @ 12:00
TAF AMD LFOT 221225Z 2212/2312 20005KT 6000 BKN003
Wind Visibility Clouds
200° at 5 knots 6,003 meters
  • Broken at 300' AGL
Becoming Jan-22 @ 12:00 to Jan-23 @ 08:00
BECMG 2212/2214 9999 BKN012
Wind Visibility Clouds
200° at 5 knots 10,000+ meters
  • Broken at 1,200' AGL
Temporary Jan-22 @ 19:00 to Jan-23 @ 08:00
TEMPO 2219/2308 3000 -SHRA BKN009 SCT020TCU
Visibility Clouds Conditions
2,993 meters
  • Broken at 900' AGL
  • Scattered at 2,000' AGL
  • Light Rain
Becoming Jan-23 @ 08:00 to Jan-23 @ 12:00
BECMG 2308/2310 30010KT SCT014
Wind Visibility Clouds
300° at 10 knots 10,000+ meters
  • Scattered at 1,400' AGL
TAF AMD LFOT 221225Z 2212/2312 20005KT 6000 BKN003 BECMG 2212/2214 9999 BKN012 TEMPO 2219/2308 3000 -SHRA BKN009 SCT020TCU BECMG 2308/2310 30010KT SCT014
Issued Jan-22 @ 12:25 UTC
(4 hours ago)
Valid From Jan-22 @ 12:00 UTC
(5 hours ago)
Valid To Jan-23 @ 12:00 UTC
(in 19 hours)
Jan-22 @ 12:00 - Jan-23 @ 12:00
Wind Visibility
200° at 5 knots 6,003 meters
Clouds
  • Broken at 300' AGL
Becoming Jan-22 @ 12:00 - Jan-23 @ 08:00
Wind Visibility
200° at 5 knots 10,000+ meters
Clouds
  • Broken at 1,200' AGL
Temporary Jan-22 @ 19:00 - Jan-23 @ 08:00
Clouds
  • Broken at 900' AGL
  • Scattered at 2,000' AGL
Conditions
  • Light Rain
Becoming Jan-23 @ 08:00 - Jan-23 @ 12:00
Wind Visibility
300° at 10 knots 10,000+ meters
Clouds
  • Scattered at 1,400' AGL